createdAt,value
2022-09-25T00:00:21.681Z,65.00
2022-09-25T00:02:51.282Z,64.50
2022-09-25T00:05:20.816Z,65.00
2022-09-25T00:07:52.906Z,63.25
2022-09-25T00:10:22.275Z,63.00
2022-09-25T00:12:51.628Z,62.25
2022-09-25T00:15:21.103Z,62.00
2022-09-25T00:17:50.544Z,61.00
2022-09-25T00:20:22.108Z,61.25
2022-09-25T00:22:51.931Z,54.50
2022-09-25T00:25:21.834Z,61.25
2022-09-25T00:27:54.890Z,60.50
2022-09-25T00:30:25.267Z,57.75
2022-09-25T00:32:54.906Z,57.50
2022-09-25T00:35:24.270Z,60.75
2022-09-25T00:37:53.751Z,62.00
2022-09-25T00:40:23.483Z,60.50
2022-09-25T00:42:52.966Z,60.00
2022-09-25T00:45:22.683Z,61.75
2022-09-25T00:47:54.935Z,53.25
2022-09-25T00:50:31.175Z,53.50
2022-09-25T00:53:05.258Z,56.50
2022-09-25T00:55:36.101Z,56.00
2022-09-25T00:58:06.974Z,60.50
2022-09-25T01:00:37.340Z,55.25
2022-09-25T01:03:06.743Z,54.00
2022-09-25T01:05:38.254Z,62.25
2022-09-25T01:08:11.357Z,54.00
2022-09-25T01:10:41.283Z,60.00
2022-09-25T01:13:11.161Z,55.00
2022-09-25T01:15:40.451Z,60.25
2022-09-25T01:18:09.855Z,52.50
2022-09-25T01:21:00.402Z,54.75
2022-09-25T01:23:48.023Z,55.25
2022-09-25T01:26:35.335Z,52.00
2022-09-25T01:29:13.656Z,53.00
2022-09-25T01:31:54.414Z,55.25
2022-09-25T01:34:47.270Z,65.75
2022-09-25T01:37:24.355Z,60.25
2022-09-25T01:40:09.786Z,61.75
2022-09-25T01:42:42.448Z,59.25
2022-09-25T01:45:17.216Z,60.25
2022-09-25T01:47:50.068Z,64.00
2022-09-25T01:50:23.170Z,56.75
2022-09-25T01:52:54.929Z,66.25
2022-09-25T01:55:27.064Z,63.25
2022-09-25T01:58:06.979Z,59.50
2022-09-25T02:00:39.172Z,61.50
2022-09-25T02:03:19.824Z,61.50
2022-09-25T02:05:53.425Z,61.75
2022-09-25T02:08:47.184Z,58.50
2022-09-25T02:11:19.524Z,63.25
2022-09-25T02:13:56.197Z,61.25
2022-09-25T02:16:36.641Z,61.00
2022-09-25T02:19:26.604Z,60.75
2022-09-25T02:22:05.889Z,59.75
2022-09-25T02:24:42.112Z,63.00
2022-09-25T02:27:12.738Z,59.00
2022-09-25T02:29:44.803Z,59.00
2022-09-25T02:32:16.370Z,61.75
2022-09-25T02:34:45.848Z,62.00
2022-09-25T02:37:18.873Z,66.50
2022-09-25T02:39:51.206Z,60.25
2022-09-25T02:42:20.661Z,59.25
2022-09-25T02:44:59.253Z,61.25
2022-09-25T02:47:56.402Z,61.50
2022-09-25T02:50:43.862Z,61.75
2022-09-25T02:53:31.631Z,61.25
2022-09-25T02:56:04.449Z,56.25
2022-09-25T02:58:37.015Z,63.25
2022-09-25T03:01:09.936Z,61.00
2022-09-25T03:03:40.249Z,62.00
2022-09-25T03:06:10.533Z,55.75
2022-09-25T03:08:47.345Z,59.50
2022-09-25T03:11:21.041Z,62.00
2022-09-25T03:14:01.579Z,65.00
2022-09-25T03:16:38.754Z,61.00
2022-09-25T03:19:09.911Z,59.25
2022-09-25T03:21:39.619Z,59.00
2022-09-25T03:24:08.917Z,61.25
2022-09-25T03:26:38.476Z,59.25
2022-09-25T03:29:08.065Z,63.00
2022-09-25T03:31:37.582Z,62.50
2022-09-25T03:34:07.065Z,61.75
2022-09-25T03:36:37.053Z,62.00
2022-09-25T03:39:07.419Z,63.25
2022-09-25T03:41:36.926Z,57.25
2022-09-25T03:44:06.721Z,61.00
2022-09-25T03:46:37.242Z,60.75
2022-09-25T03:49:07.573Z,60.75
2022-09-25T03:51:37.307Z,63.50
2022-09-25T03:54:07.067Z,56.50
2022-09-25T03:56:36.935Z,59.50
2022-09-25T03:59:07.584Z,62.25
2022-09-25T04:01:38.174Z,64.25
2022-09-25T04:04:08.337Z,59.75
2022-09-25T04:06:37.741Z,59.75
2022-09-25T04:09:07.215Z,57.00
2022-09-25T04:11:39.514Z,62.25
2022-09-25T04:14:09.053Z,59.00
2022-09-25T04:16:38.558Z,61.50
2022-09-25T04:19:08.284Z,57.50
2022-09-25T04:21:37.588Z,61.25
2022-09-25T04:24:24.860Z,62.00
2022-09-25T04:26:55.020Z,62.25
2022-09-25T04:29:26.199Z,60.50
2022-09-25T04:32:13.682Z,60.75
2022-09-25T04:34:43.114Z,67.00
2022-09-25T04:37:13.305Z,63.00
2022-09-25T04:39:42.700Z,63.25
2022-09-25T04:42:12.165Z,62.25
2022-09-25T04:44:41.585Z,68.50
2022-09-25T04:47:11.055Z,67.25
2022-09-25T04:49:40.598Z,64.00
2022-09-25T04:52:10.125Z,65.00
2022-09-25T04:54:39.543Z,63.25
2022-09-25T04:57:09.412Z,62.50
2022-09-25T04:59:39.240Z,61.75
2022-09-25T05:02:08.837Z,60.25
2022-09-25T05:04:38.399Z,59.25
2022-09-25T05:07:08.069Z,60.50
2022-09-25T05:09:37.632Z,60.25
2022-09-25T05:12:07.388Z,59.50
2022-09-25T05:14:36.973Z,63.00
2022-09-25T05:17:08.177Z,56.75
2022-09-25T05:19:38.278Z,60.50
2022-09-25T05:22:07.938Z,63.25
2022-09-25T05:24:37.635Z,60.50
2022-09-25T05:27:10.162Z,61.50
2022-09-25T05:29:40.336Z,65.25
2022-09-25T05:32:09.752Z,62.25
2022-09-25T05:34:42.023Z,62.50
2022-09-25T05:37:11.379Z,63.00
2022-09-25T05:39:40.704Z,65.25
2022-09-25T05:42:10.471Z,60.50
2022-09-25T05:44:40.939Z,63.75
2022-09-25T05:47:10.449Z,64.25
2022-09-25T05:49:39.900Z,64.25
2022-09-25T05:52:09.397Z,65.25
2022-09-25T05:54:38.915Z,63.75
2022-09-25T05:57:09.586Z,61.75
2022-09-25T05:59:38.969Z,61.25
2022-09-25T06:02:11.135Z,59.75
2022-09-25T06:04:40.484Z,62.25
2022-09-25T06:07:11.300Z,62.75
2022-09-25T06:09:40.787Z,61.25
2022-09-25T06:12:10.227Z,66.75
2022-09-25T06:14:39.710Z,62.50
2022-09-25T06:17:09.652Z,67.75
2022-09-25T06:19:39.262Z,71.50
2022-09-25T06:22:08.688Z,65.25
2022-09-25T06:24:38.053Z,63.00
2022-09-25T06:27:10.860Z,68.25
2022-09-25T06:29:40.228Z,63.75
2022-09-25T06:32:09.536Z,67.25
2022-09-25T06:34:39.960Z,70.00
2022-09-25T06:37:10.186Z,69.50
2022-09-25T06:39:39.593Z,65.00
2022-09-25T06:42:08.909Z,63.25
2022-09-25T06:44:39.153Z,66.00
2022-09-25T06:47:08.853Z,68.00
2022-09-25T06:49:38.163Z,62.50
2022-09-25T06:52:07.588Z,66.50
2022-09-25T06:54:39.453Z,61.50
2022-09-25T06:57:13.952Z,66.25
2022-09-25T06:59:43.416Z,66.00
2022-09-25T07:02:30.832Z,66.50
2022-09-25T07:05:01.513Z,63.00
2022-09-25T07:07:32.361Z,63.50
2022-09-25T07:10:02.517Z,66.25
2022-09-25T07:12:35.580Z,67.00
2022-09-25T07:15:05.049Z,62.75
2022-09-25T07:17:34.414Z,68.00
2022-09-25T07:20:04.253Z,66.25
2022-09-25T07:22:33.732Z,70.25
2022-09-25T07:25:03.382Z,64.75
2022-09-25T07:27:32.877Z,66.75
2022-09-25T07:30:05.135Z,65.75
2022-09-25T07:32:35.269Z,63.25
2022-09-25T07:35:04.816Z,68.00
2022-09-25T07:37:35.666Z,65.00
2022-09-25T07:40:05.523Z,68.50
2022-09-25T07:42:36.480Z,64.00
2022-09-25T07:45:06.185Z,68.25
2022-09-25T07:47:35.897Z,65.00
2022-09-25T07:50:05.260Z,69.75
2022-09-25T07:52:34.657Z,63.25
2022-09-25T07:55:03.987Z,71.50
2022-09-25T07:57:33.354Z,69.50
2022-09-25T08:00:03.533Z,70.00
2022-09-25T08:02:41.188Z,69.50
2022-09-25T08:05:12.817Z,68.00
2022-09-25T08:07:42.461Z,72.75
2022-09-25T08:10:11.861Z,66.50
2022-09-25T08:12:42.178Z,67.00
2022-09-25T08:15:11.946Z,71.50
2022-09-25T08:17:41.346Z,66.00
2022-09-25T08:20:11.161Z,66.50
2022-09-25T08:22:40.516Z,65.75
2022-09-25T08:25:10.079Z,69.25
2022-09-25T08:27:43.449Z,62.75
2022-09-25T08:30:15.075Z,70.50
2022-09-25T08:32:44.874Z,64.00
2022-09-25T08:35:14.851Z,61.75
2022-09-25T08:37:46.283Z,67.75
2022-09-25T08:40:21.968Z,67.50
2022-09-25T08:42:54.329Z,66.25
2022-09-25T08:45:46.063Z,68.25
2022-09-25T08:48:39.707Z,65.75
2022-09-25T08:51:11.024Z,65.00
2022-09-25T08:53:41.895Z,64.25
2022-09-25T08:56:16.745Z,63.75
2022-09-25T08:58:48.128Z,66.75
2022-09-25T09:01:20.950Z,68.25
2022-09-25T09:04:12.452Z,65.00
2022-09-25T09:06:44.981Z,65.50
2022-09-25T09:09:38.714Z,62.00
2022-09-25T09:12:17.206Z,61.75
2022-09-25T09:14:49.354Z,62.75
2022-09-25T09:17:24.279Z,61.25
2022-09-25T09:19:56.960Z,63.25
2022-09-25T09:22:34.751Z,67.50
2022-09-25T09:25:25.553Z,61.50
2022-09-25T09:28:01.288Z,68.50
2022-09-25T09:30:37.494Z,65.25
2022-09-25T09:33:30.703Z,64.25
2022-09-25T09:36:03.763Z,65.75
2022-09-25T09:38:46.051Z,59.25
2022-09-25T09:41:23.164Z,62.00
2022-09-25T09:44:13.826Z,61.75
2022-09-25T09:46:43.594Z,69.25
2022-09-25T09:49:20.430Z,63.75
2022-09-25T09:51:56.252Z,60.75
2022-09-25T09:54:48.367Z,62.50
2022-09-25T09:57:28.660Z,65.50
2022-09-25T10:00:03.659Z,66.75
2022-09-25T10:02:40.522Z,72.00
2022-09-25T10:05:22.966Z,64.75
2022-09-25T10:07:54.999Z,68.00
2022-09-25T10:10:29.278Z,70.25
2022-09-25T10:13:06.253Z,66.25
2022-09-25T10:15:40.127Z,70.50
2022-09-25T10:18:09.942Z,69.50
2022-09-25T10:20:44.957Z,78.50
2022-09-25T10:23:35.374Z,73.75
2022-09-25T10:26:07.351Z,73.00
2022-09-25T10:28:37.314Z,71.00
2022-09-25T10:31:10.316Z,75.75
2022-09-25T10:33:39.815Z,74.00
2022-09-25T10:36:09.601Z,71.75
2022-09-25T10:38:43.354Z,76.50
2022-09-25T10:41:14.567Z,78.00
2022-09-25T10:44:09.934Z,75.25
2022-09-25T10:46:57.313Z,73.75
2022-09-25T10:50:05.939Z,77.25
2022-09-25T10:52:52.449Z,75.75
2022-09-25T10:55:30.050Z,72.75
2022-09-25T10:58:15.371Z,76.25
2022-09-25T11:00:57.171Z,75.75
2022-09-25T11:03:35.612Z,73.25
2022-09-25T11:06:10.655Z,74.25
2022-09-25T11:08:42.560Z,74.25
2022-09-25T11:11:13.551Z,81.25
2022-09-25T11:13:55.632Z,80.75
2022-09-25T11:16:43.309Z,78.00
2022-09-25T11:19:18.232Z,72.75
2022-09-25T11:21:51.048Z,70.00
2022-09-25T11:24:41.868Z,76.25
2022-09-25T11:27:11.768Z,74.50
2022-09-25T11:30:00.158Z,71.50
2022-09-25T11:32:35.623Z,71.50
2022-09-25T11:35:21.196Z,74.50
2022-09-25T11:37:58.034Z,73.75
2022-09-25T11:41:00.920Z,70.25
2022-09-25T11:43:40.714Z,75.00
2022-09-25T11:46:28.064Z,74.00
2022-09-25T11:49:09.939Z,70.75
2022-09-25T11:51:58.328Z,71.50
2022-09-25T11:54:51.810Z,73.75
2022-09-25T11:57:45.002Z,75.50
2022-09-25T12:00:15.708Z,76.00
2022-09-25T12:02:45.037Z,78.75
2022-09-25T12:05:25.419Z,71.00
2022-09-25T12:08:06.662Z,71.75
2022-09-25T12:10:44.049Z,73.25
2022-09-25T12:13:23.158Z,74.50
2022-09-25T12:16:00.010Z,72.25
2022-09-25T12:18:35.287Z,79.50
2022-09-25T12:21:37.229Z,72.75
2022-09-25T12:24:16.509Z,81.00
2022-09-25T12:26:48.670Z,73.25
2022-09-25T12:29:30.323Z,74.00
2022-09-25T12:32:00.174Z,76.75
2022-09-25T12:34:36.112Z,76.50
2022-09-25T12:37:27.296Z,73.00
2022-09-25T12:40:05.134Z,73.00
2022-09-25T12:42:58.301Z,72.75
2022-09-25T12:45:33.599Z,70.25
2022-09-25T12:48:09.503Z,75.50
2022-09-25T12:50:47.630Z,76.00
2022-09-25T12:53:35.743Z,69.75
2022-09-25T12:56:34.998Z,76.00
2022-09-25T12:59:24.393Z,68.75
2022-09-25T13:02:01.224Z,69.75
2022-09-25T13:04:37.477Z,68.75
2022-09-25T13:07:21.620Z,69.75
2022-09-25T13:09:51.977Z,70.75
2022-09-25T13:12:40.888Z,67.75
2022-09-25T13:15:23.016Z,72.25
2022-09-25T13:17:53.444Z,71.00
2022-09-25T13:20:32.674Z,69.25
2022-09-25T13:23:06.090Z,69.50
2022-09-25T13:26:04.930Z,69.50
2022-09-25T13:28:43.358Z,68.75
2022-09-25T13:31:14.574Z,62.25
2022-09-25T13:33:52.223Z,68.00
2022-09-25T13:36:25.913Z,69.75
2022-09-25T13:39:19.232Z,64.75
2022-09-25T13:42:00.361Z,64.00
2022-09-25T13:44:45.246Z,71.00
2022-09-25T13:47:27.320Z,62.00
2022-09-25T13:50:06.896Z,64.00
2022-09-25T13:52:43.214Z,61.75
2022-09-25T13:55:21.574Z,62.50
2022-09-25T13:58:00.786Z,66.00
2022-09-25T14:00:55.012Z,65.50
2022-09-25T14:03:34.878Z,64.25
2022-09-25T14:06:06.687Z,65.00
2022-09-25T14:08:37.376Z,65.00
2022-09-25T14:11:10.268Z,62.50
2022-09-25T14:13:45.069Z,61.25
2022-09-25T14:16:24.616Z,64.00
2022-09-25T14:18:55.504Z,60.25
2022-09-25T14:21:27.857Z,61.00
2022-09-25T14:23:59.713Z,60.25
2022-09-25T14:26:30.375Z,63.25
2022-09-25T14:29:03.353Z,57.00
2022-09-25T14:31:33.499Z,55.25
2022-09-25T14:34:21.691Z,60.75
2022-09-25T14:37:09.663Z,61.25
2022-09-25T14:39:42.565Z,62.50
2022-09-25T14:42:28.445Z,59.75
2022-09-25T14:45:01.741Z,59.25
2022-09-25T14:47:45.975Z,60.75
2022-09-25T14:50:29.422Z,61.75
2022-09-25T14:53:05.287Z,58.00
2022-09-25T14:55:38.022Z,60.75
2022-09-25T14:58:14.979Z,58.50
2022-09-25T15:00:50.877Z,60.25
2022-09-25T15:03:23.220Z,59.75
2022-09-25T15:05:53.621Z,59.75
2022-09-25T15:08:42.632Z,60.75
2022-09-25T15:11:14.492Z,61.75
2022-09-25T15:13:45.298Z,57.25
2022-09-25T15:16:47.036Z,59.00
2022-09-25T15:19:21.798Z,59.50
2022-09-25T15:21:55.472Z,55.50
2022-09-25T15:24:29.032Z,56.25
2022-09-25T15:27:08.924Z,55.75
2022-09-25T15:29:39.572Z,56.75
2022-09-25T15:32:18.240Z,61.75
2022-09-25T15:34:48.373Z,59.50
2022-09-25T15:37:18.513Z,56.00
2022-09-25T15:39:48.140Z,60.50
2022-09-25T15:42:18.147Z,56.50
2022-09-25T15:44:48.198Z,60.25
2022-09-25T15:47:38.381Z,57.50
2022-09-25T15:50:15.594Z,56.50
2022-09-25T15:52:51.693Z,58.75
2022-09-25T15:55:22.668Z,55.00
2022-09-25T15:57:54.410Z,54.50
2022-09-25T16:00:45.965Z,60.25
2022-09-25T16:03:36.643Z,51.75
2022-09-25T16:06:07.574Z,61.50
2022-09-25T16:08:38.384Z,55.25
2022-09-25T16:11:18.105Z,57.50
2022-09-25T16:13:53.170Z,57.25
2022-09-25T16:16:23.732Z,55.75
2022-09-25T16:18:55.627Z,57.00
2022-09-25T16:21:28.652Z,55.00
2022-09-25T16:24:08.698Z,53.75
2022-09-25T16:26:40.635Z,55.00
2022-09-25T16:29:19.520Z,60.00
2022-09-25T16:31:49.327Z,52.75
2022-09-25T16:34:20.621Z,55.75
2022-09-25T16:36:52.800Z,56.25
2022-09-25T16:39:29.071Z,58.00
2022-09-25T16:42:00.726Z,54.50
2022-09-25T16:44:33.341Z,59.75
2022-09-25T16:47:23.208Z,59.50
2022-09-25T16:49:52.850Z,55.50
2022-09-25T16:52:23.634Z,56.75
2022-09-25T16:54:54.792Z,59.25
2022-09-25T16:57:26.430Z,57.75
2022-09-25T16:59:56.128Z,59.25
2022-09-25T17:02:39.324Z,57.25
2022-09-25T17:05:10.730Z,58.50
2022-09-25T17:07:40.849Z,57.25
2022-09-25T17:10:13.698Z,59.75
2022-09-25T17:12:47.678Z,56.25
2022-09-25T17:15:24.567Z,58.25
2022-09-25T17:17:56.522Z,54.75
2022-09-25T17:20:28.249Z,60.00
2022-09-25T17:22:58.716Z,58.25
2022-09-25T17:25:28.025Z,56.00
2022-09-25T17:27:58.474Z,58.00
2022-09-25T17:30:29.538Z,57.25
2022-09-25T17:32:59.285Z,61.50
2022-09-25T17:35:34.717Z,59.25
2022-09-25T17:38:04.314Z,54.75
2022-09-25T17:40:34.546Z,59.25
2022-09-25T17:43:04.006Z,55.50
2022-09-25T17:45:39.243Z,55.00
2022-09-25T17:48:08.637Z,58.75
2022-09-25T17:50:38.046Z,60.50
2022-09-25T17:53:16.693Z,60.25
2022-09-25T17:55:51.205Z,58.00
2022-09-25T17:58:23.478Z,53.00
2022-09-25T18:00:53.838Z,60.00
2022-09-25T18:03:23.871Z,60.50
2022-09-25T18:05:54.163Z,59.50
2022-09-25T18:08:24.203Z,56.50
2022-09-25T18:10:54.905Z,56.00
2022-09-25T18:13:24.432Z,59.00
2022-09-25T18:15:59.180Z,59.25
2022-09-25T18:18:50.873Z,61.75
2022-09-25T18:21:41.292Z,60.50
2022-09-25T18:24:10.776Z,60.50
2022-09-25T18:26:40.449Z,59.50
2022-09-25T18:29:09.881Z,58.25
2022-09-25T18:31:39.434Z,60.25
2022-09-25T18:34:08.957Z,60.75
2022-09-25T18:36:38.280Z,59.25
2022-09-25T18:39:08.151Z,58.00
2022-09-25T18:41:40.887Z,58.25
2022-09-25T18:44:10.430Z,56.75
2022-09-25T18:46:39.845Z,60.50
2022-09-25T18:49:09.878Z,59.00
2022-09-25T18:51:39.435Z,57.00
2022-09-25T18:54:10.222Z,59.25
2022-09-25T18:56:39.538Z,61.00
2022-09-25T18:59:08.962Z,59.25
2022-09-25T19:01:39.138Z,58.25
2022-09-25T19:04:09.270Z,59.75
2022-09-25T19:06:38.732Z,60.75
2022-09-25T19:09:10.376Z,60.75
2022-09-25T19:11:43.393Z,58.25
2022-09-25T19:14:16.159Z,60.25
2022-09-25T19:16:45.558Z,60.75
2022-09-25T19:19:15.214Z,60.50
2022-09-25T19:21:46.069Z,60.75
2022-09-25T19:24:15.626Z,62.00
2022-09-25T19:26:45.611Z,59.50
2022-09-25T19:29:15.027Z,59.00
2022-09-25T19:31:44.729Z,57.25
2022-09-25T19:34:14.413Z,60.50
2022-09-25T19:36:43.934Z,63.00
2022-09-25T19:39:13.522Z,63.50
2022-09-25T19:41:44.849Z,59.50
2022-09-25T19:44:16.248Z,59.75
2022-09-25T19:46:46.851Z,60.25
2022-09-25T19:49:17.534Z,59.00
2022-09-25T19:51:46.936Z,60.25
2022-09-25T19:54:16.705Z,59.00
2022-09-25T19:56:48.393Z,61.00
2022-09-25T19:59:19.489Z,58.50
2022-09-25T20:01:49.035Z,62.00
2022-09-25T20:04:19.201Z,62.50
2022-09-25T20:06:49.928Z,62.25
2022-09-25T20:09:19.453Z,61.50
2022-09-25T20:11:48.911Z,59.00
2022-09-25T20:14:18.240Z,61.25
2022-09-25T20:16:48.334Z,59.75
2022-09-25T20:19:20.509Z,62.25
2022-09-25T20:21:51.353Z,62.50
2022-09-25T20:24:25.006Z,61.00
2022-09-25T20:26:54.654Z,59.50
2022-09-25T20:29:24.293Z,60.25
2022-09-25T20:31:53.540Z,59.25
2022-09-25T20:34:23.180Z,61.75
2022-09-25T20:36:52.461Z,60.50
2022-09-25T20:39:23.397Z,61.75
2022-09-25T20:41:53.059Z,58.50
2022-09-25T20:44:22.611Z,58.00
2022-09-25T20:46:52.013Z,58.25
2022-09-25T20:49:21.466Z,57.25
2022-09-25T20:51:50.955Z,61.25
2022-09-25T20:54:20.389Z,61.00
2022-09-25T20:56:49.856Z,58.50
2022-09-25T20:59:19.354Z,60.25
2022-09-25T21:01:49.074Z,61.00
2022-09-25T21:04:19.389Z,59.75
2022-09-25T21:06:48.692Z,61.75
2022-09-25T21:09:27.922Z,63.25
2022-09-25T21:11:57.907Z,60.75
2022-09-25T21:14:29.203Z,60.75
2022-09-25T21:16:59.564Z,65.50
2022-09-25T21:19:29.592Z,62.75
2022-09-25T21:21:59.058Z,58.75
2022-09-25T21:24:28.399Z,61.00
2022-09-25T21:26:57.846Z,61.50
2022-09-25T21:29:27.232Z,66.25
2022-09-25T21:31:57.143Z,57.00
2022-09-25T21:34:27.720Z,59.25
2022-09-25T21:36:56.941Z,62.75
2022-09-25T21:39:26.405Z,63.25
2022-09-25T21:41:55.723Z,60.50
2022-09-25T21:44:26.235Z,59.75
2022-09-25T21:46:55.742Z,61.50
2022-09-25T21:49:25.066Z,79.00
2022-09-25T21:51:54.601Z,85.50
2022-09-25T21:54:24.022Z,87.00
2022-09-25T21:56:53.420Z,75.00
2022-09-25T21:59:22.950Z,77.50
2022-09-25T22:01:52.559Z,89.25
2022-09-25T22:04:22.151Z,81.75
2022-09-25T22:06:51.435Z,77.25
2022-09-25T22:09:25.417Z,86.50
2022-09-25T22:11:54.867Z,84.50
2022-09-25T22:14:24.148Z,83.00
2022-09-25T22:16:54.256Z,90.25
2022-09-25T22:19:31.064Z,91.33
2022-09-25T22:22:01.311Z,92.67
2022-09-25T22:24:30.738Z,89.25
2022-09-25T22:27:00.138Z,91.00
2022-09-25T22:29:29.589Z,92.67
2022-09-25T22:31:59.056Z,97.67
2022-09-25T22:34:29.336Z,91.00
2022-09-25T22:37:02.018Z,92.00
2022-09-25T22:39:31.508Z,91.00
2022-09-25T22:42:01.069Z,77.50
2022-09-25T22:44:30.734Z,89.75
2022-09-25T22:47:03.740Z,85.75
2022-09-25T22:49:36.429Z,80.00
2022-09-25T22:52:06.639Z,84.25
2022-09-25T22:54:35.983Z,85.25
2022-09-25T22:57:05.640Z,81.00
2022-09-25T22:59:35.138Z,76.75
2022-09-25T23:02:04.502Z,78.75
2022-09-25T23:04:33.880Z,76.75
2022-09-25T23:07:03.220Z,76.75
2022-09-25T23:09:35.253Z,78.75
2022-09-25T23:12:05.025Z,74.75
2022-09-25T23:14:34.616Z,78.25
2022-09-25T23:17:04.565Z,82.25
2022-09-25T23:19:34.263Z,82.00
2022-09-25T23:22:03.639Z,81.50
2022-09-25T23:24:32.902Z,82.50
2022-09-25T23:27:02.348Z,79.00
2022-09-25T23:29:34.975Z,92.00
2022-09-25T23:32:06.103Z,91.00
2022-09-25T23:34:35.638Z,82.25
2022-09-25T23:37:05.115Z,87.00
2022-09-25T23:39:34.585Z,84.50
2022-09-25T23:42:04.069Z,86.50
2022-09-25T23:44:33.361Z,82.75
2022-09-25T23:47:04.338Z,85.67
2022-09-25T23:49:33.842Z,93.00
2022-09-25T23:52:03.362Z,91.67
2022-09-25T23:54:33.081Z,97.33
2022-09-25T23:57:02.454Z,92.67
2022-09-25T23:59:31.772Z,82.67
